createdAt,value
2022-11-14T00:02:33.812Z,96461.72
2022-11-14T00:05:19.306Z,96466.84
2022-11-14T00:08:04.458Z,96446.50
2022-11-14T00:10:51.343Z,96478.66
2022-11-14T00:13:36.257Z,96464.63
2022-11-14T00:16:21.637Z,96452.50
2022-11-14T00:19:07.033Z,96478.19
2022-11-14T00:21:53.445Z,96457.66
2022-11-14T00:24:38.697Z,96434.78
2022-11-14T00:27:23.966Z,96444.38
2022-11-14T00:30:09.725Z,96446.69
2022-11-14T00:32:54.635Z,96450.06
2022-11-14T00:35:39.919Z,96447.47
2022-11-14T00:38:25.099Z,96400.25
2022-11-14T00:41:10.292Z,96466.19
2022-11-14T00:43:55.483Z,96468.56
2022-11-14T00:46:40.718Z,96435.03
2022-11-14T00:49:25.883Z,96451.63
2022-11-14T00:52:11.031Z,96446.19
2022-11-14T00:54:56.328Z,96446.50
2022-11-14T00:57:41.710Z,96408.78
2022-11-14T01:00:27.355Z,96419.41
2022-11-14T01:03:12.423Z,96416.78
2022-11-14T01:05:57.695Z,96416.47
2022-11-14T01:08:43.941Z,96416.97
2022-11-14T01:11:29.429Z,96419.41
2022-11-14T01:14:14.697Z,96433.69
2022-11-14T01:16:59.863Z,96434.19
2022-11-14T01:19:45.146Z,96408.66
2022-11-14T01:22:30.876Z,96414.19
2022-11-14T01:25:16.126Z,96414.44
2022-11-14T01:28:01.419Z,96422.41
2022-11-14T01:30:46.871Z,96393.63
2022-11-14T01:33:32.024Z,96424.25
2022-11-14T01:36:17.526Z,96397.78
2022-11-14T01:39:02.569Z,96388.66
2022-11-14T01:41:47.728Z,96394.41
2022-11-14T01:44:42.073Z,96408.34
2022-11-14T01:47:30.577Z,96403.34
2022-11-14T01:50:16.125Z,96389.94
2022-11-14T01:53:01.205Z,96395.84
2022-11-14T01:55:46.833Z,96391.63
2022-11-14T01:58:34.509Z,96371.66
2022-11-14T02:01:20.215Z,96378.44
2022-11-14T02:04:08.892Z,96392.19
2022-11-14T02:07:03.457Z,96379.44
2022-11-14T02:09:49.697Z,96391.69
2022-11-14T02:12:34.908Z,96390.91
2022-11-14T02:15:20.240Z,96368.56
2022-11-14T02:18:05.415Z,96387.53
2022-11-14T02:20:50.762Z,96364.69
2022-11-14T02:23:35.891Z,96380.22
2022-11-14T02:26:22.792Z,96375.00
2022-11-14T02:29:10.150Z,96381.34
2022-11-14T02:31:55.342Z,96337.13
2022-11-14T02:34:40.510Z,96333.03
2022-11-14T02:37:25.865Z,96368.06
2022-11-14T02:40:11.615Z,96347.81
2022-11-14T02:42:56.972Z,96362.09
2022-11-14T02:45:42.228Z,96343.88
2022-11-14T02:48:27.804Z,96368.09
2022-11-14T02:51:13.695Z,96367.28
2022-11-14T02:53:58.821Z,96355.81
2022-11-14T02:56:43.996Z,96353.84
2022-11-14T02:59:29.172Z,96350.19
2022-11-14T03:02:14.459Z,96364.19
2022-11-14T03:04:59.827Z,96330.78
2022-11-14T03:07:45.021Z,96356.81
2022-11-14T03:10:30.338Z,96357.03
2022-11-14T03:13:15.574Z,96328.16
2022-11-14T03:16:08.954Z,96328.38
2022-11-14T03:18:54.151Z,96322.69
2022-11-14T03:21:39.711Z,96340.28
2022-11-14T03:24:25.280Z,96320.28
2022-11-14T03:27:10.575Z,96327.47
2022-11-14T03:29:56.467Z,96305.25
2022-11-14T03:32:41.693Z,96316.38
2022-11-14T03:35:26.889Z,96301.88
2022-11-14T03:38:12.223Z,96305.53
2022-11-14T03:41:01.113Z,96305.53
2022-11-14T03:43:46.434Z,96292.34
2022-11-14T03:46:31.772Z,96295.72
2022-11-14T03:49:17.073Z,96318.00
2022-11-14T03:52:02.300Z,96313.50
2022-11-14T03:54:47.569Z,96289.44
2022-11-14T03:57:32.782Z,96289.94
2022-11-14T04:00:18.337Z,96318.69
2022-11-14T04:03:03.816Z,96288.13
2022-11-14T04:05:49.212Z,96283.13
2022-11-14T04:08:34.593Z,96300.25
2022-11-14T04:11:19.925Z,96283.38
2022-11-14T04:14:05.407Z,96297.41
2022-11-14T04:16:50.597Z,96282.56
2022-11-14T04:19:36.000Z,96302.91
2022-11-14T04:22:21.132Z,96278.22
2022-11-14T04:25:07.341Z,96298.88
2022-11-14T04:27:52.390Z,96276.31
2022-11-14T04:30:37.608Z,96285.91
2022-11-14T04:33:22.866Z,96288.34
2022-11-14T04:36:08.263Z,96276.84
2022-11-14T04:38:53.238Z,96297.63
2022-11-14T04:41:38.520Z,96316.84
2022-11-14T04:44:23.554Z,96283.41
2022-11-14T04:47:09.006Z,96285.56
2022-11-14T04:49:54.211Z,96282.63
2022-11-14T04:52:39.491Z,96288.63
2022-11-14T04:55:24.680Z,96311.72
2022-11-14T04:58:09.900Z,96309.13
2022-11-14T05:00:57.853Z,96313.84
2022-11-14T05:03:42.945Z,96290.53
2022-11-14T05:06:28.127Z,96296.53
2022-11-14T05:09:13.585Z,96307.03
2022-11-14T05:11:58.609Z,96308.84
2022-11-14T05:14:43.947Z,96296.44
2022-11-14T05:17:29.260Z,96315.97
2022-11-14T05:20:14.746Z,96313.44
2022-11-14T05:22:59.943Z,96298.19
2022-11-14T05:25:45.258Z,96320.50
2022-11-14T05:28:31.334Z,96330.16
2022-11-14T05:31:18.069Z,96326.25
2022-11-14T05:34:03.356Z,96304.50
2022-11-14T05:36:48.595Z,96323.97
2022-11-14T05:39:33.730Z,96304.50
2022-11-14T05:42:19.176Z,96308.69
2022-11-14T05:45:04.863Z,96290.81
2022-11-14T05:47:53.947Z,96316.31
2022-11-14T05:50:38.953Z,96309.38
2022-11-14T05:53:24.761Z,96335.31
2022-11-14T05:56:12.895Z,96310.16
2022-11-14T05:58:57.989Z,96314.56
2022-11-14T06:01:43.443Z,96303.41
2022-11-14T06:04:28.645Z,96306.78
2022-11-14T06:07:18.788Z,96348.13
2022-11-14T06:10:05.480Z,96316.66
2022-11-14T06:12:51.015Z,96338.19
2022-11-14T06:15:36.041Z,96320.03
2022-11-14T06:18:21.330Z,96324.47
2022-11-14T06:21:08.048Z,96335.16
2022-11-14T06:23:53.376Z,96343.50
2022-11-14T06:26:38.789Z,96305.28
2022-11-14T06:29:24.020Z,96314.81
2022-11-14T06:32:09.225Z,96331.69
2022-11-14T06:34:54.468Z,96315.09
2022-11-14T06:37:39.713Z,96352.78
2022-11-14T06:40:24.943Z,96330.97
2022-11-14T06:43:10.050Z,96348.84
2022-11-14T06:45:55.914Z,96326.59
2022-11-14T06:48:41.955Z,96328.91
2022-11-14T06:51:27.068Z,96355.97
2022-11-14T06:54:12.746Z,96372.38
2022-11-14T06:56:57.596Z,96374.72
2022-11-14T06:59:42.996Z,96364.03
2022-11-14T07:02:28.217Z,96312.31
2022-11-14T07:05:13.387Z,96370.75
2022-11-14T07:07:58.648Z,96342.94
2022-11-14T07:10:44.163Z,96361.09
2022-11-14T07:13:31.269Z,96394.22
2022-11-14T07:16:16.747Z,96399.34
2022-11-14T07:19:07.517Z,96385.28
2022-11-14T07:21:52.964Z,96380.03
2022-11-14T07:24:38.189Z,96370.22
2022-11-14T07:27:23.324Z,96402.84
2022-11-14T07:30:09.003Z,96384.34
2022-11-14T07:32:58.449Z,96388.13
2022-11-14T07:35:43.449Z,96383.13
2022-11-14T07:38:33.825Z,96391.44
2022-11-14T07:41:19.404Z,96393.22
2022-11-14T07:44:04.583Z,96357.59
2022-11-14T07:46:50.183Z,96393.16
2022-11-14T07:49:35.399Z,96382.16
2022-11-14T07:52:20.813Z,96368.03
2022-11-14T07:55:06.562Z,96360.47
2022-11-14T07:57:55.333Z,96367.66
2022-11-14T08:00:40.898Z,96374.06
2022-11-14T08:03:25.809Z,96367.09
2022-11-14T08:06:13.856Z,96373.72
2022-11-14T08:08:58.974Z,96349.00
2022-11-14T08:11:50.259Z,96367.94
2022-11-14T08:14:35.299Z,96382.94
2022-11-14T08:17:21.409Z,96357.81
2022-11-14T08:20:08.291Z,96381.94
2022-11-14T08:22:54.962Z,96385.91
2022-11-14T08:25:41.495Z,96384.91
2022-11-14T08:28:27.062Z,96381.38
2022-11-14T08:31:13.685Z,96385.19
2022-11-14T08:33:59.144Z,96408.13
2022-11-14T08:36:44.328Z,96407.13
2022-11-14T08:39:29.611Z,96393.47
2022-11-14T08:42:14.945Z,96393.94
2022-11-14T08:45:00.149Z,96419.91
2022-11-14T08:47:52.426Z,96404.34
2022-11-14T08:50:37.615Z,96411.13
2022-11-14T08:53:23.622Z,96405.94
2022-11-14T08:56:10.789Z,96395.38
2022-11-14T08:58:56.115Z,96400.16
2022-11-14T09:01:41.282Z,96403.28
2022-11-14T09:04:26.671Z,96380.09
2022-11-14T09:07:12.064Z,96377.66
2022-11-14T09:09:57.308Z,96394.31
2022-11-14T09:12:42.795Z,96366.16
2022-11-14T09:15:28.732Z,96397.91
2022-11-14T09:18:13.899Z,96381.22
2022-11-14T09:21:08.069Z,96382.66
2022-11-14T09:23:56.225Z,96373.25
2022-11-14T09:26:45.873Z,96388.91
2022-11-14T09:29:31.205Z,96358.69
2022-11-14T09:32:16.387Z,96410.19
2022-11-14T09:35:01.771Z,96382.56
2022-11-14T09:37:47.041Z,96403.69
2022-11-14T09:40:49.458Z,96393.53
2022-11-14T09:44:03.496Z,96429.06
2022-11-14T09:47:11.127Z,96410.44
2022-11-14T09:50:05.563Z,96406.03
2022-11-14T09:52:59.171Z,96421.31
2022-11-14T09:55:44.676Z,96402.00
2022-11-14T09:58:29.961Z,96414.84
2022-11-14T10:01:46.472Z,96414.06
2022-11-14T10:04:37.678Z,96414.13
2022-11-14T10:07:44.302Z,96409.94
2022-11-14T10:10:40.341Z,96404.97
2022-11-14T10:13:53.088Z,96402.56
2022-11-14T10:16:59.862Z,96407.97
2022-11-14T10:19:48.252Z,96406.81
2022-11-14T10:23:01.175Z,96413.31
2022-11-14T10:26:25.765Z,96402.69
2022-11-14T10:29:32.335Z,96419.53
2022-11-14T10:32:43.543Z,96381.84
2022-11-14T10:35:35.783Z,96423.13
2022-11-14T10:38:35.442Z,96385.78
2022-11-14T10:41:50.120Z,96386.25
2022-11-14T10:44:40.750Z,96394.34
2022-11-14T10:47:30.071Z,96403.38
2022-11-14T10:50:19.992Z,96391.00
2022-11-14T10:53:14.322Z,96398.94
2022-11-14T10:56:04.766Z,96381.88
2022-11-14T10:58:50.503Z,96398.81
2022-11-14T11:01:43.251Z,96391.19
2022-11-14T11:04:34.210Z,96366.72
2022-11-14T11:07:43.719Z,96381.91
2022-11-14T11:10:47.584Z,96392.44
2022-11-14T11:13:35.593Z,96353.69
2022-11-14T11:16:23.348Z,96397.25
2022-11-14T11:19:27.518Z,96395.69
2022-11-14T11:22:26.532Z,96401.59
2022-11-14T11:25:33.313Z,96401.94
2022-11-14T11:28:21.322Z,96384.44
2022-11-14T11:31:08.604Z,96367.00
2022-11-14T11:33:54.492Z,96386.09
2022-11-14T11:36:53.165Z,96379.44
2022-11-14T11:39:45.410Z,96404.22
2022-11-14T11:43:31.690Z,96400.03
2022-11-14T11:45:49.674Z,96394.13
2022-11-14T11:48:38.320Z,96387.63
2022-11-14T11:51:27.001Z,96369.31
2022-11-14T11:54:22.348Z,96380.25
2022-11-14T11:57:20.061Z,96393.31
2022-11-14T12:00:14.343Z,96383.47
2022-11-14T12:03:00.575Z,96385.50
2022-11-14T12:05:45.710Z,96388.16
2022-11-14T12:08:45.755Z,96370.47
2022-11-14T12:11:34.776Z,96378.34
2022-11-14T12:14:58.425Z,96384.56
2022-11-14T12:17:54.100Z,96361.19
2022-11-14T12:21:13.368Z,96372.13
2022-11-14T12:24:33.727Z,96369.56
2022-11-14T12:27:40.387Z,96382.00
2022-11-14T12:30:27.271Z,96362.19
2022-11-14T12:33:17.225Z,96373.19
2022-11-14T12:36:06.440Z,96377.59
2022-11-14T12:38:53.926Z,96384.56
2022-11-14T12:41:40.424Z,96361.81
2022-11-14T12:44:28.838Z,96406.06
2022-11-14T12:47:28.667Z,96406.75
2022-11-14T12:50:41.380Z,96395.84
2022-11-14T12:53:36.013Z,96398.13
2022-11-14T12:56:30.453Z,96404.66
2022-11-14T12:59:28.352Z,96348.47
2022-11-14T13:02:23.916Z,96364.50
2022-11-14T13:05:49.459Z,96405.28
2022-11-14T13:08:46.282Z,96398.63
2022-11-14T13:11:51.323Z,96410.78
2022-11-14T13:15:09.423Z,96388.16
2022-11-14T13:18:27.477Z,96425.81
2022-11-14T13:21:40.873Z,96416.06
2022-11-14T13:25:01.312Z,96404.94
2022-11-14T13:28:07.101Z,96412.84
2022-11-14T13:31:16.920Z,96414.09
2022-11-14T13:34:37.478Z,96409.16
2022-11-14T13:37:50.816Z,96422.63
2022-11-14T13:40:50.652Z,96394.91
2022-11-14T13:44:13.623Z,96415.13
2022-11-14T13:47:20.383Z,96412.84
2022-11-14T13:50:26.575Z,96372.34
2022-11-14T13:53:19.938Z,96383.41
2022-11-14T13:56:29.816Z,96385.41
2022-11-14T13:59:30.452Z,96409.72
2022-11-14T14:02:36.072Z,96388.63
2022-11-14T14:05:42.658Z,96404.84
2022-11-14T14:08:52.985Z,96381.88
2022-11-14T14:12:03.119Z,96387.44
2022-11-14T14:15:03.437Z,96351.19
2022-11-14T14:18:07.242Z,96397.63
2022-11-14T14:20:56.488Z,96391.50
2022-11-14T14:23:47.779Z,96393.41
2022-11-14T14:26:55.607Z,96395.97
2022-11-14T14:30:19.722Z,96386.97
2022-11-14T14:33:07.939Z,96390.25
2022-11-14T14:35:54.347Z,96373.41
2022-11-14T14:38:39.544Z,96363.56
2022-11-14T14:41:30.761Z,96369.59
2022-11-14T14:44:26.905Z,96374.59
2022-11-14T14:47:19.735Z,96390.91
2022-11-14T14:50:13.189Z,96365.47
2022-11-14T14:53:02.355Z,96382.25
2022-11-14T14:56:17.036Z,96334.63
2022-11-14T14:59:16.446Z,96361.38
2022-11-14T15:02:01.672Z,96360.63
2022-11-14T15:04:46.739Z,96349.78
2022-11-14T15:07:32.224Z,96375.19
2022-11-14T15:10:24.435Z,96337.81
2022-11-14T15:13:16.294Z,96354.75
2022-11-14T15:16:03.390Z,96344.22
2022-11-14T15:18:50.653Z,96360.97
2022-11-14T15:21:36.078Z,96356.22
2022-11-14T15:24:23.630Z,96363.34
2022-11-14T15:27:13.478Z,96357.44
2022-11-14T15:30:02.639Z,96345.81
2022-11-14T15:32:53.203Z,96314.19
2022-11-14T15:35:39.552Z,96336.31
2022-11-14T15:41:32.576Z,96343.13
2022-11-14T15:44:34.278Z,96336.13
2022-11-14T15:47:34.599Z,96309.78
2022-11-14T15:50:26.929Z,96329.28
2022-11-14T15:53:18.367Z,96331.84
2022-11-14T15:56:03.878Z,96325.16
2022-11-14T15:58:49.620Z,96324.53
2022-11-14T16:01:35.193Z,96317.06
2022-11-14T16:04:22.712Z,96322.00
2022-11-14T16:07:12.058Z,96285.41
2022-11-14T16:09:57.271Z,96309.59
2022-11-14T16:12:43.471Z,96321.53
2022-11-14T16:15:29.892Z,96312.78
2022-11-14T16:18:15.352Z,96287.66
2022-11-14T16:21:00.623Z,96315.38
2022-11-14T16:23:46.084Z,96299.03
2022-11-14T16:26:31.484Z,96289.91
2022-11-14T16:29:18.219Z,96308.81
2022-11-14T16:32:03.751Z,96304.34
2022-11-14T16:34:50.165Z,96304.66
2022-11-14T16:37:35.584Z,96315.53
2022-11-14T16:40:23.964Z,96309.31
2022-11-14T16:43:13.246Z,96314.44
2022-11-14T16:45:58.421Z,96290.75
2022-11-14T16:48:43.670Z,96315.34
2022-11-14T16:54:33.949Z,96296.66
2022-11-14T16:57:19.545Z,96315.94
2022-11-14T17:00:07.611Z,96320.66
2022-11-14T17:02:53.005Z,96318.31
2022-11-14T17:05:45.391Z,96318.31
2022-11-14T17:08:30.659Z,96314.31
2022-11-14T17:11:15.907Z,96301.00
2022-11-14T17:14:01.090Z,96311.75
2022-11-14T17:16:47.015Z,96291.53
2022-11-14T17:19:32.259Z,96297.09
2022-11-14T17:22:19.867Z,96284.44
2022-11-14T17:25:07.056Z,96294.72
2022-11-14T17:28:01.445Z,96288.06
2022-11-14T17:30:46.767Z,96305.91
2022-11-14T17:33:32.041Z,96281.75
2022-11-14T17:36:18.153Z,96285.94
2022-11-14T17:39:03.426Z,96301.94
2022-11-14T17:41:48.978Z,96240.28
2022-11-14T17:44:34.126Z,96305.53
2022-11-14T17:47:20.238Z,96284.28
2022-11-14T17:50:05.672Z,96271.19
2022-11-14T17:52:50.708Z,96303.59
2022-11-14T17:55:36.147Z,96295.81
2022-11-14T17:58:21.600Z,96291.88
2022-11-14T18:01:12.068Z,96286.53
2022-11-14T18:04:01.662Z,96300.56
2022-11-14T18:06:49.856Z,96301.66
2022-11-14T18:09:34.919Z,96282.47
2022-11-14T18:12:20.126Z,96302.28
2022-11-14T18:15:06.215Z,96272.22
2022-11-14T18:17:51.739Z,96295.31
2022-11-14T18:20:39.881Z,96291.63
2022-11-14T18:23:25.529Z,96259.31
2022-11-14T18:26:18.165Z,96303.97
2022-11-14T18:29:03.668Z,96305.56
2022-11-14T18:31:48.711Z,96293.34
2022-11-14T18:34:36.825Z,96301.41
2022-11-14T18:37:22.614Z,96322.50
2022-11-14T18:40:10.970Z,96316.38
2022-11-14T18:43:01.281Z,96286.75
2022-11-14T18:45:46.745Z,96320.06
2022-11-14T18:48:32.072Z,96314.63
2022-11-14T18:51:24.131Z,96318.97
2022-11-14T18:54:15.866Z,96301.22
2022-11-14T18:57:01.735Z,96296.75
2022-11-14T18:59:46.975Z,96312.47
2022-11-14T19:02:32.143Z,96315.50
2022-11-14T19:05:17.457Z,96297.34
2022-11-14T19:08:03.371Z,96308.19
2022-11-14T19:10:48.542Z,96299.97
2022-11-14T19:13:34.368Z,96311.03
2022-11-14T19:16:19.895Z,96276.94
2022-11-14T19:19:06.352Z,96315.09
2022-11-14T19:21:51.979Z,96283.22
2022-11-14T19:24:37.132Z,96288.97
2022-11-14T19:27:22.357Z,96302.75
2022-11-14T19:30:08.483Z,96282.44
2022-11-14T19:32:53.562Z,96301.38
2022-11-14T19:35:39.382Z,96301.06
2022-11-14T19:38:24.946Z,96307.19
2022-11-14T19:41:16.970Z,96269.59
2022-11-14T19:44:02.788Z,96288.78
2022-11-14T19:46:48.444Z,96297.75
2022-11-14T19:49:33.430Z,96291.22
2022-11-14T19:52:20.192Z,96310.03
2022-11-14T19:55:05.759Z,96285.72
2022-11-14T19:57:50.983Z,96310.38
2022-11-14T20:00:36.432Z,96310.38
2022-11-14T20:03:21.518Z,96313.00
2022-11-14T20:06:25.084Z,96304.22
2022-11-14T20:09:11.073Z,96277.19
2022-11-14T20:11:56.580Z,96306.06
2022-11-14T20:14:44.216Z,96264.72
2022-11-14T20:17:29.277Z,96306.97
2022-11-14T20:20:14.750Z,96292.69
2022-11-14T20:22:59.874Z,96299.56
2022-11-14T20:25:52.720Z,96296.13
2022-11-14T20:28:38.997Z,96276.97
2022-11-14T20:31:30.001Z,96309.09
2022-11-14T20:34:18.240Z,96291.00
2022-11-14T20:37:13.092Z,96325.88
2022-11-14T20:39:58.679Z,96298.06
2022-11-14T20:42:48.252Z,96290.66
2022-11-14T20:45:33.234Z,96278.72
2022-11-14T20:48:18.526Z,96314.59
2022-11-14T20:51:09.107Z,96307.91
2022-11-14T20:53:55.331Z,96294.81
2022-11-14T20:56:40.667Z,96279.22
2022-11-14T20:59:26.022Z,96276.84
2022-11-14T21:02:12.524Z,96311.66
2022-11-14T21:04:57.613Z,96282.50
2022-11-14T21:07:44.748Z,96295.84
2022-11-14T21:10:46.795Z,96303.13
2022-11-14T21:13:53.888Z,96305.34
2022-11-14T21:16:39.821Z,96298.88
2022-11-14T21:19:25.282Z,96277.81
2022-11-14T21:22:10.497Z,96310.66
2022-11-14T21:24:55.847Z,96277.84
2022-11-14T21:27:41.016Z,96280.84
2022-11-14T21:30:26.307Z,96286.00
2022-11-14T21:33:11.410Z,96302.31
2022-11-14T21:36:03.911Z,96289.16
2022-11-14T21:39:01.689Z,96288.66
2022-11-14T21:41:49.122Z,96285.84
2022-11-14T21:44:34.310Z,96258.56
2022-11-14T21:47:19.502Z,96298.34
2022-11-14T21:50:05.054Z,96262.91
2022-11-14T21:52:50.169Z,96279.09
2022-11-14T21:55:35.235Z,96300.69
2022-11-14T21:58:20.496Z,96287.91
2022-11-14T22:01:16.277Z,96295.66
2022-11-14T22:04:13.454Z,96279.88
2022-11-14T22:07:01.111Z,96256.75
2022-11-14T22:09:46.315Z,96285.72
2022-11-14T22:12:35.217Z,96295.09
2022-11-14T22:15:20.566Z,96293.47
2022-11-14T22:18:05.808Z,96272.00
2022-11-14T22:20:54.450Z,96285.72
2022-11-14T22:23:39.481Z,96298.41
2022-11-14T22:26:24.932Z,96274.06
2022-11-14T22:29:10.294Z,96278.22
2022-11-14T22:31:56.814Z,96307.19
2022-11-14T22:34:41.886Z,96269.44
2022-11-14T22:37:27.104Z,96295.94
2022-11-14T22:40:13.340Z,96305.03
2022-11-14T22:43:00.560Z,96292.94
2022-11-14T22:45:51.604Z,96302.09
2022-11-14T22:48:36.840Z,96306.34
2022-11-14T22:51:27.429Z,96305.03
2022-11-14T22:54:13.283Z,96278.75
2022-11-14T22:56:58.449Z,96316.09
2022-11-14T22:59:43.711Z,96242.47
2022-11-14T23:02:29.023Z,96291.19
2022-11-14T23:05:14.366Z,96325.63
2022-11-14T23:07:59.611Z,96319.16
2022-11-14T23:10:47.103Z,96302.28
2022-11-14T23:13:40.284Z,96301.56
2022-11-14T23:16:31.070Z,96313.81
2022-11-14T23:19:16.222Z,96305.00
2022-11-14T23:22:01.560Z,96288.03
2022-11-14T23:24:46.994Z,96284.09
2022-11-14T23:27:32.904Z,96312.72
2022-11-14T23:30:18.220Z,96271.63
2022-11-14T23:33:05.303Z,96248.41
2022-11-14T23:35:50.590Z,96285.22
2022-11-14T23:38:36.042Z,96273.22
2022-11-14T23:41:27.611Z,96273.00
2022-11-14T23:44:12.447Z,96300.06
2022-11-14T23:46:57.816Z,96264.72
2022-11-14T23:49:46.394Z,96257.97
2022-11-14T23:52:31.681Z,96281.84
2022-11-14T23:55:16.898Z,96241.91
2022-11-14T23:58:02.060Z,96244.13
